Nearby METAR Reports


KANE - Minneapls/Blaine, Minnesota, USA
Distance from station: ESE 8mi, 13km
Updated: 01/20/2021 10:45am
Mostly cloudy
Mostly cloudy
 Wind from S
Wind: S 14 mph , 22 km/h, Gust: 21 mph , 33 km/h
Temperature: 25°F , -4°C
Wind Chill: 13°F , -11°C
Dew Point: 16°F , -9°C
Humidity: 69%
Barometer: 29.66 inHg , 1004.4 hPa
Clouds: Mostly cloudy
Visibility: 10 miles , 16 km
Cloud details: Partly cloudy 15000 ft
Mostly cloudy 20000 ft
2021/01/20 16:45 KANE 201645Z 17012G18KT 10SM SCT150 BKN200 M04/M09 A2966
KMIC - Mnpls/Crystal, Minnesota, USA
Distance from station: S 8mi, 14km
Updated: 01/20/2021 10:53am
Clear
Clear
 Wind from S
Wind: S 15 mph , 24 km/h, Gust: 26 mph , 43 km/h
Temperature: 27°F , -3°C
Wind Chill: 15°F , -9°C
Dew Point: 18°F , -8°C
Humidity: 69%
Barometer: 29.64 inHg , 1003.7 hPa
Clouds: Clear
Visibility: 10 miles , 16 km
2021/01/20 16:53 KMIC 201653Z 18013G23KT 10SM CLR M03/M08 A2964 RMK AO2 PK WND 19028/1604 SLP053 T10281083
 
KMSP - Minneapolis, Minnesota, USA
Distance from station: SSE 22mi, 35km
Updated: 01/20/2021 10:53am
Overcast
Overcast
 Wind from SSW
Wind: SSW 10 mph , 17 km/h, Gust: 21 mph , 33 km/h
Temperature: 27°F , -3°C
Wind Chill: 18°F , -8°C
Dew Point: 18°F , -8°C
Humidity: 69%
Barometer: 29.69 inHg , 1005.4 hPa
Clouds: Overcast
Visibility: 10 miles , 16 km
Cloud details: Overcast 20000 ft
2021/01/20 16:53 KMSP 201653Z 21009G18KT 10SM OVC200 M03/M08 A2969 RMK AO2 PRESFR SLP070 T10281078
KSTP - St. Paul, Minnesota, USA
Distance from station: SE 23mi, 38km
Updated: 01/20/2021 10:53am
Clear
Clear
 Wind from S
Wind: S 17 mph , 28 km/h
Temperature: 25°F , -4°C
Wind Chill: 12°F , -11°C
Dew Point: 16°F , -9°C
Humidity: 69%
Barometer: 29.70 inHg , 1005.8 hPa
Clouds: Clear
Visibility: 10 miles , 16 km
2021/01/20 16:53 KSTP 201653Z 17015KT 10SM CLR M04/M09 A2970 RMK AO2 PRESFR SLP069 T10441089
 
KCFE - Buffalo Muni, Minnesota, USA
Distance from station: W 24mi, 38km
Updated: 01/20/2021 10:35am
Clear
Clear
 
Temperature: 25°F , -4°C
Dew Point: 18°F , -8°C
Humidity: 74%
Barometer: 29.65 inHg , 1004.1 hPa
Clouds: Clear
Visibility: 7 miles , 11 km
2021/01/20 16:35 KCFE 201635Z 7SM CLR M04/M08 A2965 RMK AO2 T10381080
KFCM - Mnpls/Flying Cld, Minnesota, USA
Distance from station: S 25mi, 40km
Updated: 01/20/2021 10:53am
Clear
Clear
 Wind from SSW
Wind: SSW 17 mph , 28 km/h, Gust: 28 mph , 44 km/h
Temperature: 27°F , -3°C
Wind Chill: 14°F , -10°C
Dew Point: 18°F , -8°C
Humidity: 69%
Barometer: 29.67 inHg , 1004.7 hPa
Clouds: Clear
Visibility: 10 miles , 16 km
2021/01/20 16:53 KFCM 201653Z 20015G24KT 10SM CLR M03/M08 A2967 RMK AO2 PK WND 19026/1604 PRESFR SLP063 T10331078
 
KCBG - Cambridge Muni, Minnesota, USA
Distance from station: N 27mi, 43km
Updated: 01/20/2021 10:55am
Clear
Clear
 Wind from S
Wind: S 10 mph , 17 km/h, Gust: 17 mph , 28 km/h
Temperature: 21°F , -6°C
Wind Chill: 10°F , -12°C
Dew Point: 12°F , -11°C
Humidity: 68%
Barometer: 29.63 inHg , 1003.4 hPa
Clouds: Clear
Visibility: 10 miles , 16 km
2021/01/20 16:55 KCBG 201655Z AUTO 18009G15KT 10SM CLR M06/M11 A2963 RMK AO2
KPNM - Princeton Muni, Minnesota, USA
Distance from station: NNW 27mi, 44km
Updated: 01/20/2021 10:36am
Clear
Clear
 Wind from S
Wind: S 9 mph , 15 km/h, Gust: 23 mph , 37 km/h
Temperature: 25°F , -4°C
Wind Chill: 16°F , -9°C
Dew Point: 18°F , -8°C
Humidity: 74%
Barometer: 29.62 inHg , 1003 hPa
Clouds: Clear
Visibility: 10 miles , 16 km
2021/01/20 16:36 KPNM 201636Z AUTO 19008G20KT 10SM CLR M04/M08 A2962 RMK AO2
 
K21D - Lake Elmo, Minnesota, USA
Distance from station: ESE 28mi, 46km
Updated: 01/20/2021 10:12am
Clear
Clear
 Wind from S
Wind: S 13 mph , 20 km/h, Gust: 20 mph , 31 km/h
Temperature: 16°F , -9°C
Wind Chill: 2°F , -17°C
Dew Point: 12°F , -11°C
Humidity: 86%
Barometer: 29.75 inHg , 1007.5 hPa
Clouds: Clear
Visibility: 10 miles , 16 km
2021/01/20 16:12 K21D 201612Z AUTO 18011G17KT 10SM CLR M09/M11 A2975 RMK AO2
KSGS - South St Paul, Minnesota, USA
Distance from station: SE 28mi, 46km
Updated: 01/20/2021 10:55am
Clear
Clear
 Wind from S
Wind: S 12 mph , 19 km/h, Gust: 16 mph , 26 km/h
Temperature: 25°F , -4°C
Wind Chill: 14°F , -10°C
Dew Point: 18°F , -8°C
Humidity: 74%
Barometer: 29.71 inHg , 1006.1 hPa
Clouds: Clear
Visibility: 10 miles , 16 km
2021/01/20 16:55 KSGS 201655Z AUTO 17010G14KT 10SM CLR M04/M08 A2971 RMK AO2 T10371083
 
KMGG - Maple Lake, Minnesota, USA
Distance from station: W 30mi, 48km
Updated: 01/20/2021 9:59am

 Wind from S
Wind: S 12 mph , 19 km/h, Gust: 25 mph , 41 km/h
Temperature: 25°F , -4°C
Wind Chill: 14°F , -10°C
Dew Point: 19°F , -7°C
Humidity: 80%
Barometer: 29.66 inHg , 1004.4 hPa
Visibility: 10 miles , 16 km
2021/01/20 15:59 KMGG 201559Z AUTO 19010G22KT 170V230 10SM M04/M07 A2966 RMK AO2
KOEO - Osceola, Wisconsin, USA
Distance from station: ENE 34mi, 55km
Updated: 01/20/2021 10:55am
Clear
Clear
 Wind from S
Wind: S 23 mph , 37 km/h, Gust: 30 mph , 48 km/h
Temperature: 21°F , -6°C
Wind Chill: 5°F , -15°C
Dew Point: 14°F , -10°C
Humidity: 74%
Barometer: 29.69 inHg , 1005.4 hPa
Clouds: Clear
Visibility: 7 miles , 11 km
2021/01/20 16:55 KOEO 201655Z AUTO 17020G26KT 7SM CLR M06/M10 A2969 RMK AO2 T1064109
 
KLVN - Mnpls/Airlake, Minnesota, USA
Distance from station: S 39mi, 63km
Updated: 01/20/2021 10:35am
Clear
Clear
 Wind from S
Wind: S 9 mph , 15 km/h
Temperature: 25°F , -4°C
Wind Chill: 16°F , -9°C
Dew Point: 16°F , -9°C
Humidity: 69%
Barometer: 29.71 inHg , 1006.1 hPa
Clouds: Clear
Visibility: 10 miles , 16 km
2021/01/20 16:35 KLVN 201635Z AUTO 19008KT 10SM CLR M04/M09 A2971 RMK AO2
KRNH - New Richmond Mun, Wisconsin, USA
Distance from station: E 41mi, 66km
Updated: 01/20/2021 10:35am
Clear
Clear
 Wind from S
Wind: S 14 mph , 22 km/h
Temperature: 18°F , -8°C
Wind Chill: 4°F , -16°C
Dew Point: 10°F , -12°C
Humidity: 73%
Barometer: 29.73 inHg , 1006.8 hPa
Clouds: Clear
Visibility: 10 miles , 16 km
2021/01/20 16:35 KRNH 201635Z AUTO 18012KT 10SM CLR M08/M12 A2973 RMK AO2 T10811117
 
KROS - Rush City, Minnesota, USA
Distance from station: NNE 41mi, 66km
Updated: 01/20/2021 10:55am
Clear
Clear
 Wind from S
Wind: S 10 mph , 17 km/h, Gust: 17 mph , 28 km/h
Temperature: 18°F , -8°C
Wind Chill: 6°F , -14°C
Dew Point: 12°F , -11°C
Humidity: 79%
Barometer: 29.64 inHg , 1003.7 hPa
Clouds: Clear
Visibility: 10 miles , 16 km
2021/01/20 16:55 KROS 201655Z AUTO 18009G15KT 10SM CLR M08/M11 A2964 RMK AO2 T10771112
KSTC - St. Cloud, Minnesota, USA
Distance from station: NW 41mi, 67km
Updated: 01/20/2021 10:53am
Clear
Clear
 Wind from SW
Wind: SW 17 mph , 28 km/h, Gust: 29 mph , 46 km/h
Temperature: 28°F , -2°C
Wind Chill: 16°F , -9°C
Dew Point: 19°F , -7°C
Humidity: 69%
Barometer: 29.60 inHg , 1002.4 hPa
Clouds: Clear
Visibility: 10 miles , 16 km
2021/01/20 16:53 KSTC 201653Z 22015G25KT 10SM CLR M02/M07 A2960 RMK AO2 SLP052 T10221072
 
KGYL - Glencoe, Minnesota, USA
Distance from station: SW 46mi, 74km
Updated: 01/20/2021 10:55am
Clear
Clear
 Wind from S
Wind: S 17 mph , 28 km/h
Temperature: 27°F , -3°C
Wind Chill: 14°F , -10°C
Dew Point: 19°F , -7°C
Humidity: 74%
Barometer: 29.65 inHg , 1004.1 hPa
Clouds: Clear
Visibility: 7 miles , 11 km
2021/01/20 16:55 KGYL 201655Z AUTO 19015KT 7SM CLR M03/M07 A2965 RMK AO2 T10301066
KJMR - Mora, Minnesota, USA
Distance from station: N 48mi, 78km
Updated: 01/20/2021 10:55am
Clear
Clear
 Wind from S
Wind: S 12 mph , 19 km/h
Temperature: 18°F , -8°C
Wind Chill: 5°F , -15°C
Dew Point: 12°F , -11°C
Humidity: 79%
Barometer: 29.63 inHg , 1003.4 hPa
Clouds: Clear
Visibility: 10 miles , 16 km
2021/01/20 16:55 KJMR 201655Z AUTO 19010KT 10SM CLR M08/M11 A2963 RMK AO2